Time;durP1;ratioP1;P1;durP2;ratioP2;P2;SDS_P1;SDS_P2;PMS_P1;PMS_P2;Temp;Humidity;BMP_temperature;BMP_pressure;BME280_temperature;BME280_humidity;BME280_pressure;Samples;Min_cycle;Max_cycle;Signal;HPM_P1;HPM_P2
2023/08/02 00:00:58;;;;;;;2.45;2.35;;;22.70;74.70;;;;;;5038860;28;20238;-73
2023/08/02 00:03:23;;;;;;;2.90;2.58;;;22.70;73.20;;;;;;5048681;28;20649;-73
2023/08/02 00:05:57;;;;;;;2.75;2.55;;;22.80;73.00;;;;;;5046617;28;20186;-73
2023/08/02 00:08:24;;;;;;;2.00;1.90;;;22.80;72.20;;;;;;5051706;28;20215;-73
2023/08/02 00:10:50;;;;;;;2.38;2.28;;;22.80;72.20;;;;;;5051778;28;20175;-74
2023/08/02 00:13:15;;;;;;;3.33;2.13;;;22.80;72.60;;;;;;5055423;28;20180;-74
2023/08/02 00:15:41;;;;;;;2.20;2.10;;;22.90;73.00;;;;;;5042156;28;20219;-73
2023/08/02 00:18:08;;;;;;;2.38;2.28;;;22.80;73.50;;;;;;5052098;28;20270;-74
2023/08/02 00:20:35;;;;;;;2.30;2.20;;;22.90;73.00;;;;;;5057914;28;20570;-74
2023/08/02 00:23:00;;;;;;;2.40;2.30;;;22.80;74.00;;;;;;5049568;28;20202;-74
2023/08/02 00:25:26;;;;;;;2.60;2.53;;;22.70;74.10;;;;;;5056486;28;20183;-75
2023/08/02 00:27:52;;;;;;;3.70;2.25;;;22.60;74.30;;;;;;5047815;28;20815;-74
2023/08/02 00:30:18;;;;;;;2.30;2.10;;;22.70;73.40;;;;;;5049117;28;20183;-74
2023/08/02 00:32:48;;;;;;;2.13;2.13;;;22.70;73.10;;;;;;5054398;28;20183;-73
2023/08/02 00:35:14;;;;;;;2.05;2.05;;;22.70;73.50;;;;;;5047533;28;20184;-73
2023/08/02 00:37:44;;;;;;;2.30;2.20;;;22.70;73.00;;;;;;5042766;28;20225;-73
2023/08/02 00:40:10;;;;;;;2.53;2.15;;;22.80;73.00;;;;;;5041437;28;20295;-72
2023/08/02 00:42:36;;;;;;;2.35;2.25;;;22.80;72.80;;;;;;5053912;28;20659;-72
2023/08/02 00:45:03;;;;;;;2.45;2.38;;;22.90;73.30;;;;;;5050719;28;20229;-73
2023/08/02 00:47:33;;;;;;;2.88;2.38;;;22.80;73.30;;;;;;5044861;28;20180;-73
2023/08/02 00:50:00;;;;;;;3.30;2.47;;;22.80;73.10;;;;;;5054345;28;20183;-73
2023/08/02 00:52:26;;;;;;;2.10;2.00;;;22.80;73.40;;;;;;5055443;28;20176;-73
2023/08/02 00:54:52;;;;;;;2.38;2.28;;;22.80;73.50;;;;;;5052210;28;20179;-73
2023/08/02 00:57:18;;;;;;;3.10;2.40;;;22.80;73.30;;;;;;5049190;28;20658;-73
2023/08/02 00:59:43;;;;;;;2.40;2.20;;;22.70;73.70;;;;;;5043457;28;20982;-73
2023/08/02 01:02:09;;;;;;;2.92;2.20;;;22.70;73.80;;;;;;5046289;28;20181;-73
2023/08/02 01:04:36;;;;;;;2.25;2.15;;;22.70;73.40;;;;;;5045791;28;20194;-72
2023/08/02 01:07:05;;;;;;;2.63;2.50;;;22.70;73.10;;;;;;5057026;28;20178;-73
2023/08/02 01:09:49;;;;;;;2.50;2.50;;;22.70;73.20;;;;;;5048875;28;20219;-73
2023/08/02 01:12:19;;;;;;;2.72;2.60;;;22.70;73.40;;;;;;5055402;28;20201;-74
2023/08/02 01:14:49;;;;;;;2.40;2.30;;;22.60;73.40;;;;;;5039332;28;20205;-74
2023/08/02 01:17:15;;;;;;;2.20;2.10;;;22.60;73.40;;;;;;5042606;28;20221;-74
2023/08/02 01:19:42;;;;;;;2.53;2.42;;;22.60;73.30;;;;;;5050218;28;20187;-73
2023/08/02 01:22:08;;;;;;;2.75;2.60;;;22.60;73.60;;;;;;5045059;28;20263;-73
2023/08/02 01:24:35;;;;;;;4.82;2.80;;;22.50;73.80;;;;;;5046560;28;20229;-72
2023/08/02 01:27:20;;;;;;;2.67;2.45;;;22.50;74.10;;;;;;5049211;28;20183;-73
2023/08/02 01:29:49;;;;;;;2.25;2.15;;;22.50;74.20;;;;;;5041163;28;20601;-73
2023/08/02 01:32:16;;;;;;;2.45;2.35;;;22.50;74.20;;;;;;5051694;28;20237;-73
2023/08/02 01:34:42;;;;;;;2.13;2.05;;;22.50;74.30;;;;;;5040471;28;20191;-73
2023/08/02 01:37:08;;;;;;;2.67;2.50;;;22.50;74.70;;;;;;5044887;28;20179;-73
2023/08/02 01:39:34;;;;;;;2.97;2.53;;;22.40;75.30;;;;;;5043731;28;20234;-73
2023/08/02 01:41:59;;;;;;;2.45;2.35;;;22.40;75.10;;;;;;5047841;28;20180;-72
2023/08/02 01:44:25;;;;;;;2.72;2.63;;;22.20;76.10;;;;;;5046514;28;20186;-72
2023/08/02 01:46:50;;;;;;;2.13;2.08;;;22.20;75.70;;;;;;5041774;28;20172;-73
2023/08/02 01:49:34;;;;;;;2.85;2.75;;;22.20;75.40;;;;;;5108999;27;20293;-72
2023/08/02 01:52:00;;;;;;;2.58;2.38;;;22.20;75.30;;;;;;5107609;28;20632;-73
2023/08/02 01:54:25;;;;;;;2.08;2.08;;;22.10;75.20;;;;;;5087882;28;20189;-73
2023/08/02 01:56:51;;;;;;;2.53;2.33;;;22.10;75.40;;;;;;5091718;28;20170;-73
2023/08/02 01:59:16;;;;;;;2.20;2.20;;;22.10;75.30;;;;;;5107531;28;20257;-74
2023/08/02 02:01:42;;;;;;;2.17;2.08;;;22.10;75.40;;;;;;5107240;28;20619;-73
2023/08/02 02:04:08;;;;;;;2.47;2.38;;;22.10;75.30;;;;;;5110629;28;20177;-73
2023/08/02 02:06:33;;;;;;;3.05;2.65;;;22.10;75.50;;;;;;5107267;28;20173;-73
2023/08/02 02:08:59;;;;;;;2.58;2.47;;;22.10;75.60;;;;;;5113098;28;20207;-74
2023/08/02 02:11:24;;;;;;;2.15;2.05;;;22.10;75.50;;;;;;5110988;28;20261;-74
2023/08/02 02:13:50;;;;;;;3.40;2.80;;;22.10;75.70;;;;;;5107315;28;20714;-74
2023/08/02 02:16:16;;;;;;;2.63;2.53;;;22.10;75.50;;;;;;5087470;28;20705;-74
2023/08/02 02:18:41;;;;;;;2.60;2.50;;;22.10;75.90;;;;;;5113904;28;20192;-73
2023/08/02 02:21:07;;;;;;;2.53;2.38;;;22.00;76.00;;;;;;5116160;28;20166;-73
2023/08/02 02:23:32;;;;;;;2.22;2.17;;;22.00;76.20;;;;;;5114248;28;20176;-73
2023/08/02 02:25:58;;;;;;;3.65;2.60;;;22.00;76.40;;;;;;5108472;28;20166;-73
2023/08/02 02:28:24;;;;;;;3.25;3.05;;;22.00;76.40;;;;;;5120033;28;20218;-74
2023/08/02 02:30:51;;;;;;;3.10;2.90;;;21.90;76.60;;;;;;5106605;28;20185;-73
2023/08/02 02:33:16;;;;;;;6.57;2.45;;;21.90;76.50;;;;;;5105320;28;20248;-73
2023/08/02 02:35:42;;;;;;;2.45;2.35;;;21.90;76.60;;;;;;5108945;28;20296;-73
2023/08/02 02:38:07;;;;;;;2.72;2.63;;;21.90;76.70;;;;;;5106980;28;20180;-74
2023/08/02 02:40:33;;;;;;;2.67;2.47;;;21.90;76.90;;;;;;5102168;28;20189;-73
2023/08/02 02:42:59;;;;;;;4.15;2.65;;;21.80;77.20;;;;;;5107124;28;20185;-73
2023/08/02 02:45:24;;;;;;;2.67;2.47;;;21.80;77.20;;;;;;5093745;28;20189;-74
2023/08/02 02:47:50;;;;;;;2.95;2.70;;;21.80;77.10;;;;;;5098588;28;20227;-74
2023/08/02 02:50:17;;;;;;;3.20;3.10;;;21.80;77.30;;;;;;5094413;28;20186;-73
2023/08/02 02:52:43;;;;;;;3.40;3.13;;;21.80;77.30;;;;;;5098266;28;20188;-73
2023/08/02 02:55:09;;;;;;;3.38;3.15;;;21.80;77.80;;;;;;5097062;28;20173;-73
2023/08/02 02:57:35;;;;;;;3.67;3.00;;;21.80;77.70;;;;;;5096096;28;20251;-74
2023/08/02 03:00:01;;;;;;;6.68;3.22;;;21.80;77.80;;;;;;5100646;28;20662;-74
2023/08/02 03:02:26;;;;;;;3.50;3.33;;;21.80;77.80;;;;;;5073810;28;20182;-74
2023/08/02 03:04:52;;;;;;;3.00;2.90;;;21.80;77.70;;;;;;5092241;28;20249;-73
2023/08/02 03:07:17;;;;;;;3.10;2.80;;;21.80;77.70;;;;;;5099742;28;20388;-74
2023/08/02 03:09:43;;;;;;;2.90;2.80;;;21.80;77.60;;;;;;5092381;28;20271;-74
2023/08/02 03:12:09;;;;;;;4.63;3.45;;;21.80;77.80;;;;;;5105988;28;20561;-74
2023/08/02 03:14:35;;;;;;;2.75;2.65;;;21.80;77.70;;;;;;5093294;28;20575;-74
2023/08/02 03:17:00;;;;;;;3.13;3.03;;;21.70;79.20;;;;;;5104928;28;20676;-74
2023/08/02 03:19:26;;;;;;;3.40;3.20;;;21.40;80.60;;;;;;5094039;28;20703;-73
2023/08/02 03:21:52;;;;;;;3.45;3.35;;;21.40;79.60;;;;;;5108478;28;20174;-73
2023/08/02 03:24:17;;;;;;;3.08;2.97;;;21.40;78.30;;;;;;5104833;28;20236;-73
2023/08/02 03:26:43;;;;;;;3.22;2.97;;;21.40;80.20;;;;;;5098411;28;20239;-73
2023/08/02 03:29:08;;;;;;;5.38;3.38;;;21.30;80.10;;;;;;5091443;28;20206;-73
2023/08/02 03:31:34;;;;;;;3.22;3.13;;;21.30;79.10;;;;;;5106422;28;20565;-73
2023/08/02 03:34:00;;;;;;;3.83;3.53;;;21.40;78.80;;;;;;5084545;28;20714;-73
2023/08/02 03:36:25;;;;;;;3.10;3.00;;;21.40;78.60;;;;;;5080749;28;20203;-73
2023/08/02 03:38:51;;;;;;;3.70;3.50;;;21.50;78.70;;;;;;5091811;28;20228;-73
2023/08/02 03:41:17;;;;;;;3.42;3.30;;;21.50;78.50;;;;;;5089856;28;20592;-74
2023/08/02 03:43:42;;;;;;;4.40;4.03;;;21.50;78.30;;;;;;5074333;28;20185;-74
2023/08/02 03:46:08;;;;;;;6.53;3.58;;;21.50;78.20;;;;;;5098676;28;20265;-74
2023/08/02 03:48:34;;;;;;;3.63;3.08;;;21.60;78.00;;;;;;5093367;28;20218;-74
2023/08/02 03:51:00;;;;;;;3.90;3.70;;;21.60;77.50;;;;;;5097832;28;20643;-73
2023/08/02 03:53:26;;;;;;;4.07;3.75;;;21.60;78.00;;;;;;5079489;28;20213;-73
2023/08/02 03:55:52;;;;;;;4.97;3.75;;;21.70;77.90;;;;;;5095322;28;20171;-73
2023/08/02 03:58:18;;;;;;;3.50;3.35;;;21.70;78.00;;;;;;5089655;28;20181;-73
2023/08/02 04:00:44;;;;;;;3.03;2.92;;;21.70;77.90;;;;;;5100119;28;20659;-73
2023/08/02 04:03:09;;;;;;;3.67;3.40;;;21.60;77.80;;;;;;5098259;28;20679;-74
2023/08/02 04:05:35;;;;;;;2.65;2.55;;;21.60;78.60;;;;;;5092487;28;20174;-74
2023/08/02 04:08:01;;;;;;;3.38;3.00;;;21.50;77.60;;;;;;5098180;28;20735;-74
2023/08/02 04:10:27;;;;;;;3.08;2.97;;;21.60;77.90;;;;;;5093173;28;20265;-73
2023/08/02 04:12:53;;;;;;;3.20;2.90;;;21.70;77.80;;;;;;5074750;28;20261;-74
2023/08/02 04:15:19;;;;;;;3.08;2.88;;;21.80;77.60;;;;;;5091316;28;20265;-73
2023/08/02 04:17:44;;;;;;;2.97;2.83;;;21.80;77.60;;;;;;5079533;28;20652;-73
2023/08/02 04:20:10;;;;;;;3.45;2.97;;;21.90;77.70;;;;;;5103025;28;20196;-73
2023/08/02 04:22:36;;;;;;;7.00;3.05;;;21.90;77.60;;;;;;5095234;28;20178;-73
2023/08/02 04:25:03;;;;;;;3.15;2.95;;;21.90;77.10;;;;;;5090917;28;20182;-73
2023/08/02 04:27:29;;;;;;;3.55;3.30;;;21.90;77.00;;;;;;5092503;28;20198;-74
2023/08/02 04:29:55;;;;;;;3.60;3.38;;;21.90;77.00;;;;;;5101040;28;20182;-73
2023/08/02 04:32:21;;;;;;;3.55;3.17;;;21.90;77.40;;;;;;5091147;28;20171;-73
2023/08/02 04:34:47;;;;;;;3.15;2.97;;;22.00;76.80;;;;;;5089900;28;20178;-76
2023/08/02 04:37:12;;;;;;;3.72;3.40;;;22.00;76.50;;;;;;5073767;28;20265;-75
2023/08/02 04:39:38;;;;;;;4.63;3.28;;;22.10;76.10;;;;;;5092992;28;20235;-75
2023/08/02 04:42:04;;;;;;;4.35;3.95;;;22.20;76.10;;;;;;5090413;28;20174;-76
2023/08/02 04:44:30;;;;;;;7.88;3.83;;;22.20;76.10;;;;;;5086048;28;20170;-75
2023/08/02 04:46:55;;;;;;;5.38;3.83;;;22.20;76.80;;;;;;5093278;28;20179;-75
2023/08/02 04:49:21;;;;;;;10.77;3.60;;;22.30;76.00;;;;;;5096267;28;20646;-75
2023/08/02 04:51:47;;;;;;;3.53;3.25;;;22.40;75.90;;;;;;5091296;28;20221;-72
2023/08/02 04:54:12;;;;;;;3.10;2.97;;;22.50;75.40;;;;;;5098803;28;20190;-73
2023/08/02 04:56:38;;;;;;;3.75;3.55;;;22.60;75.90;;;;;;5089322;28;20261;-74
2023/08/02 04:59:05;;;;;;;3.30;3.10;;;22.70;75.90;;;;;;5093311;28;20185;-74
2023/08/02 05:01:31;;;;;;;4.13;3.30;;;22.70;76.70;;;;;;5071509;28;20181;-74
2023/08/02 05:03:57;;;;;;;7.32;3.47;;;22.90;76.30;;;;;;5095693;28;20166;-77
2023/08/02 05:06:23;;;;;;;3.67;3.47;;;22.90;76.10;;;;;;5085630;28;20178;-74
2023/08/02 05:08:49;;;;;;;3.72;3.42;;;23.00;75.90;;;;;;5092004;28;20199;-73
2023/08/02 05:11:14;;;;;;;3.53;3.22;;;23.00;76.00;;;;;;5079514;28;20179;-73
2023/08/02 05:13:40;;;;;;;5.05;3.47;;;23.10;76.10;;;;;;5098688;28;20209;-74
2023/08/02 05:16:12;;;;;;;6.43;3.60;;;23.10;76.00;;;;;;5094588;28;20178;-74
2023/08/02 05:18:37;;;;;;;6.80;3.72;;;23.10;75.80;;;;;;5098683;28;20220;-73
2023/08/02 05:21:11;;;;;;;3.63;3.42;;;23.20;76.30;;;;;;5075227;28;20206;-73
2023/08/02 05:23:37;;;;;;;3.80;3.50;;;23.30;76.10;;;;;;5094441;28;20186;-74
2023/08/02 05:26:04;;;;;;;3.72;3.55;;;23.40;76.10;;;;;;5093749;28;20185;-73
2023/08/02 05:28:29;;;;;;;3.88;3.58;;;23.40;76.00;;;;;;5094618;28;20293;-73
2023/08/02 05:30:55;;;;;;;5.18;3.70;;;23.50;75.90;;;;;;5090361;28;21024;-75
2023/08/02 05:33:20;;;;;;;5.75;4.22;;;23.50;75.50;;;;;;5094740;28;20273;-74
2023/08/02 05:35:46;;;;;;;5.53;4.22;;;23.60;75.30;;;;;;5086894;28;20258;-73
2023/08/02 05:38:12;;;;;;;4.40;3.97;;;23.70;75.40;;;;;;5076487;28;20177;-73
2023/08/02 05:40:38;;;;;;;4.65;4.07;;;23.80;75.10;;;;;;5086993;28;20174;-73
2023/08/02 05:43:03;;;;;;;14.65;4.63;;;23.80;74.40;;;;;;5094230;28;20305;-73
2023/08/02 05:45:29;;;;;;;6.63;3.95;;;23.90;74.70;;;;;;5093959;28;20189;-72
2023/08/02 05:47:55;;;;;;;10.65;3.92;;;23.90;74.20;;;;;;5101769;28;20201;-74
2023/08/02 05:50:20;;;;;;;8.95;4.18;;;23.90;73.90;;;;;;5094850;28;20189;-74
2023/08/02 05:52:46;;;;;;;7.78;4.38;;;24.00;73.70;;;;;;5076711;28;20178;-73
2023/08/02 05:55:12;;;;;;;11.35;4.35;;;24.00;73.90;;;;;;5088019;28;20181;-73
2023/08/02 05:57:37;;;;;;;15.90;5.60;;;24.00;73.90;;;;;;5082983;28;20182;-74
2023/08/02 06:00:03;;;;;;;13.70;5.30;;;24.00;73.20;;;;;;5088982;28;20176;-74
2023/08/02 06:02:29;;;;;;;7.88;4.72;;;24.00;73.00;;;;;;5055914;28;20186;-74
2023/08/02 06:04:55;;;;;;;19.35;5.68;;;24.10;72.70;;;;;;5084503;28;20178;-74
2023/08/02 06:07:20;;;;;;;11.23;5.25;;;24.10;72.80;;;;;;5087995;28;20182;-74
2023/08/02 06:09:48;;;;;;;9.02;5.97;;;24.20;72.50;;;;;;5083451;28;20545;-72
2023/08/02 06:12:13;;;;;;;8.57;5.55;;;24.20;72.40;;;;;;5069253;28;20186;-74
2023/08/02 06:14:39;;;;;;;5.95;5.38;;;24.30;72.10;;;;;;5086478;28;20186;-74
2023/08/02 06:17:05;;;;;;;5.43;4.90;;;24.30;72.20;;;;;;5082084;28;20183;-74
2023/08/02 06:19:30;;;;;;;6.55;5.95;;;24.40;71.90;;;;;;5087502;28;20191;-73
2023/08/02 06:21:56;;;;;;;20.48;5.78;;;24.40;71.50;;;;;;5088677;28;20182;-74
2023/08/02 06:24:22;;;;;;;23.40;5.75;;;24.40;71.80;;;;;;5086010;28;20194;-73
2023/08/02 06:26:48;;;;;;;9.90;5.53;;;24.60;71.40;;;;;;5067245;28;20186;-73
2023/08/02 06:29:13;;;;;;;15.90;6.00;;;24.70;71.50;;;;;;5088067;28;20205;-73
2023/08/02 06:31:39;;;;;;;13.20;6.50;;;24.90;71.50;;;;;;5089117;28;20621;-73
2023/08/02 06:34:06;;;;;;;17.25;5.97;;;25.00;71.10;;;;;;5070748;28;20351;-73
2023/08/02 06:36:32;;;;;;;10.57;5.43;;;25.20;71.10;;;;;;5070337;28;20194;-73
2023/08/02 06:38:58;;;;;;;6.30;5.72;;;25.30;70.40;;;;;;5101457;28;20268;-72
2023/08/02 06:41:23;;;;;;;7.00;5.65;;;25.50;70.30;;;;;;5078669;28;20213;-73
2023/08/02 06:43:50;;;;;;;10.70;4.85;;;25.60;70.60;;;;;;5082524;28;20232;-73
2023/08/02 06:46:15;;;;;;;10.02;5.72;;;25.70;70.60;;;;;;5072783;28;20249;-74
2023/08/02 06:48:41;;;;;;;5.57;5.18;;;25.80;70.30;;;;;;5082328;28;20691;-73
2023/08/02 06:51:11;;;;;;;5.90;5.35;;;25.90;69.90;;;;;;5057665;28;20827;-73
2023/08/02 06:53:37;;;;;;;7.00;5.60;;;26.00;69.60;;;;;;5082924;28;20835;-73
2023/08/02 06:56:13;;;;;;;10.07;4.65;;;26.20;68.80;;;;;;5082348;28;20210;-73
2023/08/02 06:58:39;;;;;;;5.65;5.25;;;26.30;68.90;;;;;;5095045;28;20212;-74
2023/08/02 07:01:16;;;;;;;5.80;5.40;;;26.30;68.60;;;;;;5082438;28;21577;-73
2023/08/02 07:03:42;;;;;;;6.15;5.65;;;26.30;68.50;;;;;;5064575;28;20707;-74
2023/08/02 07:06:13;;;;;;;6.57;5.20;;;26.40;68.90;;;;;;5082491;28;20256;-75
2023/08/02 07:08:40;;;;;;;6.68;5.05;;;26.50;68.60;;;;;;5073767;28;20225;-74
2023/08/02 07:11:06;;;;;;;5.68;5.18;;;26.50;68.80;;;;;;5090017;28;20205;-73
2023/08/02 07:13:33;;;;;;;5.95;5.50;;;26.50;68.10;;;;;;5081010;28;20202;-73
2023/08/02 07:15:59;;;;;;;7.63;6.10;;;26.40;69.50;;;;;;5087101;28;20220;-73
2023/08/02 07:18:25;;;;;;;6.35;5.75;;;26.40;69.00;;;;;;5097966;28;20197;-73
2023/08/02 07:20:50;;;;;;;6.43;6.03;;;26.40;68.90;;;;;;5098659;28;20186;-72
2023/08/02 07:23:16;;;;;;;7.22;5.25;;;26.40;68.50;;;;;;5100267;28;20185;-73
2023/08/02 07:25:42;;;;;;;5.60;5.25;;;26.20;69.30;;;;;;5097163;28;20166;-74
2023/08/02 07:28:07;;;;;;;5.80;5.40;;;26.30;69.20;;;;;;5105548;28;20224;-73
2023/08/02 07:30:33;;;;;;;6.18;5.68;;;26.20;69.80;;;;;;5101151;28;20186;-74
2023/08/02 07:32:58;;;;;;;6.90;6.32;;;26.00;70.50;;;;;;5098391;28;20182;-73
2023/08/02 07:35:24;;;;;;;5.82;5.43;;;26.10;70.60;;;;;;5073839;28;20283;-73
2023/08/02 07:37:50;;;;;;;5.97;5.53;;;26.10;70.10;;;;;;5099921;28;20193;-73
2023/08/02 07:40:16;;;;;;;6.40;5.90;;;26.10;69.40;;;;;;5089058;28;20193;-73
2023/08/02 07:42:42;;;;;;;7.28;6.60;;;26.20;69.30;;;;;;5091517;28;20171;-74
2023/08/02 07:45:10;;;;;;;9.65;6.35;;;26.20;69.60;;;;;;5100299;28;20170;-74
2023/08/02 07:47:36;;;;;;;15.25;9.20;;;26.20;69.90;;;;;;5080901;28;20197;-74
2023/08/02 07:50:03;;;;;;;15.88;9.52;;;26.30;69.90;;;;;;5085200;28;20239;-74
2023/08/02 07:52:29;;;;;;;15.73;9.85;;;26.30;70.20;;;;;;5076503;28;20182;-73
2023/08/02 07:54:55;;;;;;;21.38;10.68;;;26.30;70.10;;;;;;5079820;28;20182;-74
2023/08/02 07:57:22;;;;;;;8.23;7.38;;;26.40;69.70;;;;;;5083599;28;20177;-73
2023/08/02 07:59:48;;;;;;;7.30;6.40;;;26.40;70.00;;;;;;5092503;28;20266;-74
2023/08/02 08:02:14;;;;;;;7.00;6.35;;;26.50;70.00;;;;;;5084737;28;20253;-74
2023/08/02 08:04:40;;;;;;;5.85;5.45;;;26.60;70.30;;;;;;5086415;28;20649;-72
2023/08/02 08:07:06;;;;;;;7.07;5.85;;;26.60;70.50;;;;;;5091313;28;20270;-74
2023/08/02 08:09:31;;;;;;;6.07;5.57;;;26.70;70.00;;;;;;5091373;28;20756;-74
2023/08/02 08:11:57;;;;;;;5.30;4.90;;;26.80;69.90;;;;;;5089237;28;20886;-74
2023/08/02 08:14:24;;;;;;;5.53;5.13;;;26.80;68.90;;;;;;5094738;28;20671;-73
2023/08/02 08:16:49;;;;;;;6.78;5.75;;;26.90;69.20;;;;;;5084724;28;20177;-74
2023/08/02 08:19:16;;;;;;;9.07;7.07;;;27.00;68.90;;;;;;5084438;28;20261;-73
2023/08/02 08:21:41;;;;;;;5.80;5.40;;;27.10;68.90;;;;;;5087651;28;20170;-74
2023/08/02 08:24:07;;;;;;;11.38;5.30;;;27.20;68.70;;;;;;5073064;28;20565;-72
2023/08/02 08:26:33;;;;;;;4.97;4.57;;;27.20;68.40;;;;;;5088420;28;20182;-73
2023/08/02 08:28:58;;;;;;;8.05;4.78;;;27.30;68.20;;;;;;5089253;28;20206;-72
2023/08/02 08:31:24;;;;;;;15.13;5.57;;;27.40;67.90;;;;;;5072836;28;20232;-73
2023/08/02 08:33:50;;;;;;;10.15;5.25;;;27.60;67.80;;;;;;5072376;28;20177;-73
2023/08/02 08:36:15;;;;;;;5.85;5.00;;;27.80;66.90;;;;;;5089163;28;20231;-74
2023/08/02 08:38:42;;;;;;;5.93;5.53;;;27.90;66.90;;;;;;5086380;28;20257;-73
2023/08/02 08:41:14;;;;;;;7.35;5.90;;;28.10;67.10;;;;;;5091260;28;20334;-73
2023/08/02 08:43:40;;;;;;;6.82;5.57;;;28.20;66.70;;;;;;5089172;28;20174;-73
2023/08/02 08:46:06;;;;;;;7.95;4.00;;;28.40;66.50;;;;;;5086064;28;20248;-74
2023/08/02 08:48:33;;;;;;;5.35;4.90;;;28.60;65.70;;;;;;5081351;28;20293;-75
2023/08/02 08:51:01;;;;;;;5.70;5.22;;;28.70;65.30;;;;;;5074266;28;20220;-74
2023/08/02 08:53:35;;;;;;;5.07;4.65;;;28.70;65.40;;;;;;5086784;28;20175;-74
2023/08/02 08:56:02;;;;;;;5.28;4.88;;;28.80;65.40;;;;;;5085574;28;20433;-75
2023/08/02 08:58:30;;;;;;;5.00;4.70;;;28.90;65.00;;;;;;5084461;28;20178;-75
2023/08/02 09:00:58;;;;;;;4.85;4.50;;;28.90;65.00;;;;;;5088516;28;20181;-74
2023/08/02 09:03:25;;;;;;;4.30;4.10;;;28.80;63.20;;;;;;5102259;28;20182;-74
2023/08/02 09:05:51;;;;;;;4.47;4.18;;;29.00;62.60;;;;;;5089307;28;20237;-73
2023/08/02 09:08:17;;;;;;;3.88;3.60;;;29.10;62.70;;;;;;5088471;28;20252;-74
2023/08/02 09:10:43;;;;;;;10.93;3.90;;;29.00;61.10;;;;;;5088405;28;20248;-75
2023/08/02 09:13:22;;;;;;;4.35;3.95;;;28.90;61.20;;;;;;5094161;28;20243;-75
2023/08/02 09:16:11;;;;;;;4.53;4.32;;;28.80;62.10;;;;;;5075246;28;20259;-75
2023/08/02 09:18:56;;;;;;;3.33;3.13;;;29.00;62.80;;;;;;5088851;28;20209;-74
2023/08/02 09:21:22;;;;;;;2.70;2.55;;;29.10;59.60;;;;;;5092569;28;20193;-74
2023/08/02 09:24:00;;;;;;;2.78;2.63;;;29.20;58.20;;;;;;5074074;28;20189;-75
2023/08/02 09:26:26;;;;;;;2.75;2.50;;;29.30;58.90;;;;;;5073073;28;20614;-75
2023/08/02 09:29:06;;;;;;;2.80;2.70;;;29.50;57.50;;;;;;5091668;28;20288;-74
2023/08/02 09:31:35;;;;;;;3.47;3.28;;;29.50;58.10;;;;;;5085605;28;20569;-73
2023/08/02 09:34:02;;;;;;;3.92;3.72;;;29.70;59.80;;;;;;5085579;28;20243;-73
2023/08/02 09:36:34;;;;;;;4.20;3.92;;;29.90;60.70;;;;;;5090178;28;20178;-75
2023/08/02 09:39:03;;;;;;;3.42;3.33;;;30.20;59.80;;;;;;5087901;28;20227;-75
2023/08/02 09:41:31;;;;;;;4.05;3.90;;;30.50;60.00;;;;;;5088934;28;20669;-73
2023/08/02 09:43:57;;;;;;;4.60;4.38;;;30.90;59.30;;;;;;5088123;28;20210;-75
2023/08/02 09:46:33;;;;;;;3.60;3.47;;;31.30;58.90;;;;;;5088588;28;20257;-75
2023/08/02 09:49:00;;;;;;;9.13;3.85;;;31.70;57.40;;;;;;5064137;28;20213;-76
2023/08/02 09:51:41;;;;;;;3.72;3.53;;;32.20;57.30;;;;;;5085947;28;20586;-78
2023/08/02 09:54:08;;;;;;;4.05;3.58;;;32.90;55.30;;;;;;5099231;28;20641;-75
2023/08/02 09:56:39;;;;;;;3.03;2.92;;;33.40;55.50;;;;;;5091617;28;20202;-75
2023/08/02 09:59:06;;;;;;;3.17;2.95;;;33.40;53.00;;;;;;5085066;28;20734;-76
2023/08/02 10:01:33;;;;;;;3.15;2.92;;;33.20;54.80;;;;;;5089400;28;20271;-75
2023/08/02 10:04:02;;;;;;;7.75;2.85;;;33.40;54.20;;;;;;5077526;28;20200;-76
2023/08/02 10:06:37;;;;;;;3.80;3.60;;;34.10;54.10;;;;;;5088041;28;20553;-76
2023/08/02 10:09:05;;;;;;;5.22;3.60;;;34.80;52.30;;;;;;5085505;28;20194;-76
2023/08/02 10:11:50;;;;;;;3.42;3.25;;;35.40;51.10;;;;;;5097057;28;20259;-75
2023/08/02 10:14:16;;;;;;;3.05;2.85;;;35.50;50.30;;;;;;5092409;28;20181;-74
2023/08/02 10:16:44;;;;;;;3.15;2.95;;;35.70;51.00;;;;;;5097846;28;20166;-76
2023/08/02 10:19:12;;;;;;;4.40;3.20;;;35.80;50.70;;;;;;5093213;28;20185;-76
2023/08/02 10:21:39;;;;;;;12.40;3.08;;;36.00;49.60;;;;;;5074431;28;20179;-77
2023/08/02 10:24:06;;;;;;;13.57;3.17;;;36.60;49.70;;;;;;5087709;28;20667;-75
2023/08/02 10:26:33;;;;;;;4.82;3.30;;;37.40;48.30;;;;;;5088207;28;20651;-75
2023/08/02 10:29:01;;;;;;;5.22;3.10;;;38.00;47.60;;;;;;5092372;28;20262;-74
2023/08/02 10:31:27;;;;;;;6.07;2.95;;;38.50;48.00;;;;;;5091300;28;20181;-73
2023/08/02 10:33:52;;;;;;;9.85;3.13;;;39.10;47.00;;;;;;5093132;28;20218;-76
2023/08/02 10:36:18;;;;;;;5.78;2.85;;;39.80;45.00;;;;;;5086536;28;20652;-74
2023/08/02 10:38:47;;;;;;;3.13;2.85;;;40.50;44.60;;;;;;5095710;28;20173;-74
2023/08/02 10:41:21;;;;;;;3.03;2.75;;;41.20;44.20;;;;;;5091190;28;20232;-73
2023/08/02 10:43:56;;;;;;;2.13;2.13;;;42.00;43.80;;;;;;5091087;28;20173;-74
2023/08/02 10:46:27;;;;;;;2.53;2.53;;;42.70;42.60;;;;;;5097286;28;20189;-75
2023/08/02 10:49:08;;;;;;;2.65;2.42;;;43.30;42.30;;;;;;5072727;28;20767;-74
2023/08/02 10:51:37;;;;;;;4.13;2.40;;;43.80;41.00;;;;;;5087628;28;20222;-75
2023/08/02 10:54:22;;;;;;;2.42;2.42;;;44.20;42.40;;;;;;5066713;28;20174;-76
2023/08/02 10:56:58;;;;;;;2.60;2.60;;;44.40;40.60;;;;;;5083721;28;20193;-76
2023/08/02 10:59:24;;;;;;;2.83;2.72;;;44.60;42.70;;;;;;5074548;28;20257;-75
2023/08/02 11:02:07;;;;;;;2.20;2.20;;;44.90;42.80;;;;;;5086995;28;20719;-75
2023/08/02 11:04:35;;;;;;;2.80;2.75;;;45.10;39.90;;;;;;5086450;28;20250;-75
2023/08/02 11:07:24;;;;;;;1.95;1.95;;;45.50;42.70;;;;;;5091616;28;20186;-75
2023/08/02 11:09:53;;;;;;;2.67;2.67;;;46.10;39.30;;;;;;5079205;28;20288;-74
2023/08/02 11:12:20;;;;;;;2.05;2.05;;;46.40;39.40;;;;;;5074660;28;20185;-75
2023/08/02 11:14:50;;;;;;;4.00;2.70;;;46.70;41.90;;;;;;5081570;28;20174;-76
2023/08/02 11:17:21;;;;;;;2.42;2.42;;;47.10;40.60;;;;;;5093840;28;20186;-75
2023/08/02 11:19:52;;;;;;;3.20;2.58;;;47.30;39.20;;;;;;5092032;28;20263;-75
2023/08/02 11:22:18;;;;;;;9.23;2.63;;;47.00;38.30;;;;;;5091769;28;20632;-75
2023/08/02 11:24:46;;;;;;;2.15;2.15;;;46.20;39.00;;;;;;5104465;28;20659;-75
2023/08/02 11:27:26;;;;;;;2.95;2.85;;;46.10;39.00;;;;;;5090494;28;20193;-75
2023/08/02 11:29:59;;;;;;;2.63;2.50;;;46.20;39.30;;;;;;5069447;28;20189;-74
2023/08/02 11:32:25;;;;;;;2.63;2.53;;;46.50;40.40;;;;;;5087163;28;20572;-76
2023/08/02 11:34:51;;;;;;;2.00;2.00;;;46.90;41.00;;;;;;5088636;28;20184;-75
2023/08/02 11:37:18;;;;;;;2.58;2.58;;;47.20;41.00;;;;;;5085574;28;20178;-75
2023/08/02 11:39:58;;;;;;;2.40;2.38;;;47.70;40.70;;;;;;5085298;28;21133;-75
2023/08/02 11:42:25;;;;;;;2.63;2.53;;;48.00;38.10;;;;;;5089609;28;20186;-75
2023/08/02 11:44:51;;;;;;;2.38;2.17;;;48.20;39.90;;;;;;5119699;27;20189;-75
2023/08/02 11:47:16;;;;;;;2.38;2.28;;;48.30;39.60;;;;;;5091504;28;20189;-75
2023/08/02 11:49:59;;;;;;;2.22;2.22;;;48.00;37.80;;;;;;5088171;28;20574;-74
2023/08/02 11:52:32;;;;;;;2.45;2.42;;;47.90;37.80;;;;;;5094156;28;20678;-77
2023/08/02 11:54:59;;;;;;;2.50;2.40;;;47.70;37.00;;;;;;5083529;28;20174;-76
2023/08/02 11:57:26;;;;;;;2.00;2.00;;;47.70;39.50;;;;;;5088748;28;20187;-74
2023/08/02 11:59:56;;;;;;;2.88;2.53;;;47.40;37.10;;;;;;5097555;28;20257;-75
2023/08/02 12:02:30;;;;;;;2.40;2.28;;;47.00;38.60;;;;;;5100176;28;20228;-76
2023/08/02 12:04:56;;;;;;;11.55;2.72;;;47.20;39.70;;;;;;5087108;28;20174;-76
2023/08/02 12:07:25;;;;;;;2.35;2.25;;;47.60;39.40;;;;;;5093973;28;20230;-76
2023/08/02 12:09:51;;;;;;;7.00;2.95;;;47.90;38.40;;;;;;5097113;28;20221;-77
2023/08/02 12:12:17;;;;;;;14.90;2.63;;;48.20;37.70;;;;;;5097055;28;20288;-76
2023/08/02 12:14:43;;;;;;;2.50;2.40;;;48.50;39.60;;;;;;5093640;28;20185;-74
2023/08/02 12:17:19;;;;;;;13.15;2.88;;;48.80;38.60;;;;;;5093400;28;20226;-75
2023/08/02 12:19:45;;;;;;;5.13;2.40;;;49.00;36.50;;;;;;5096872;28;20631;-76
2023/08/02 12:22:11;;;;;;;2.50;2.30;;;48.90;37.70;;;;;;5094718;28;20576;-75
2023/08/02 12:24:36;;;;;;;22.77;2.63;;;49.30;39.40;;;;;;5089143;28;20195;-77
2023/08/02 12:27:19;;;;;;;34.60;2.92;;;49.70;39.00;;;;;;5092680;28;20306;-75
2023/08/02 12:29:46;;;;;;;24.25;3.00;;;50.10;36.20;;;;;;5095864;28;20219;-75
2023/08/02 12:32:25;;;;;;;27.23;3.58;;;50.40;35.80;;;;;;5094776;28;20517;-75
2023/08/02 12:34:51;;;;;;;11.57;3.20;;;50.70;35.80;;;;;;5089276;28;20756;-75
2023/08/02 12:37:17;;;;;;;3.08;2.90;;;50.60;36.60;;;;;;5085632;28;20211;-76
2023/08/02 12:39:42;;;;;;;2.08;2.08;;;50.50;38.10;;;;;;5088119;28;20177;-74
2023/08/02 12:42:08;;;;;;;2.55;2.35;;;50.70;37.50;;;;;;5082367;28;20662;-75
2023/08/02 12:44:34;;;;;;;5.97;2.67;;;50.90;35.30;;;;;;5090502;28;20206;-75
2023/08/02 12:47:00;;;;;;;2.03;1.92;;;51.10;37.40;;;;;;5074445;28;20575;-75